sensor_id;sensor_type;location;lat;lon;timestamp;pressure;altitude;pressure_sealevel;temperature
71640;BMP280;60912;48.968;10.124;2024-01-30T00:00:37;97862.47;;;0.84
71640;BMP280;60912;48.968;10.124;2024-01-30T00:03:02;97863.56;;;0.87
71640;BMP280;60912;48.968;10.124;2024-01-30T00:05:28;97855.78;;;0.98
71640;BMP280;60912;48.968;10.124;2024-01-30T00:07:53;97853.50;;;1.18
71640;BMP280;60912;48.968;10.124;2024-01-30T00:10:22;97848.72;;;1.22
71640;BMP280;60912;48.968;10.124;2024-01-30T00:12:47;97847.25;;;1.30
71640;BMP280;60912;48.968;10.124;2024-01-30T00:15:13;97853.75;;;1.42
71640;BMP280;60912;48.968;10.124;2024-01-30T00:17:38;97854.28;;;1.50
71640;BMP280;60912;48.968;10.124;2024-01-30T00:20:04;97863.00;;;1.44
71640;BMP280;60912;48.968;10.124;2024-01-30T00:22:34;97863.84;;;1.32
71640;BMP280;60912;48.968;10.124;2024-01-30T00:25:00;97865.84;;;1.10
71640;BMP280;60912;48.968;10.124;2024-01-30T00:27:25;97860.28;;;1.14
71640;BMP280;60912;48.968;10.124;2024-01-30T00:29:51;97864.00;;;1.07
71640;BMP280;60912;48.968;10.124;2024-01-30T00:32:16;97869.69;;;1.00
71640;BMP280;60912;48.968;10.124;2024-01-30T00:34:44;97865.47;;;0.99
71640;BMP280;60912;48.968;10.124;2024-01-30T00:37:10;97871.44;;;1.16
71640;BMP280;60912;48.968;10.124;2024-01-30T00:39:35;97873.34;;;1.06
71640;BMP280;60912;48.968;10.124;2024-01-30T00:42:01;97866.66;;;0.98
71640;BMP280;60912;48.968;10.124;2024-01-30T00:44:26;97865.47;;;0.99
71640;BMP280;60912;48.968;10.124;2024-01-30T00:46:52;97860.19;;;1.04
71640;BMP280;60912;48.968;10.124;2024-01-30T00:49:17;97858.88;;;1.09
71640;BMP280;60912;48.968;10.124;2024-01-30T00:51:42;97864.50;;;1.15
71640;BMP280;60912;48.968;10.124;2024-01-30T00:54:08;97860.72;;;1.12
71640;BMP280;60912;48.968;10.124;2024-01-30T00:56:33;97866.28;;;1.08
71640;BMP280;60912;48.968;10.124;2024-01-30T00:58:59;97859.13;;;1.02
71640;BMP280;60912;48.968;10.124;2024-01-30T01:01:24;97864.06;;;0.94
71640;BMP280;60912;48.968;10.124;2024-01-30T01:03:49;97874.31;;;0.78
71640;BMP280;60912;48.968;10.124;2024-01-30T01:06:15;97869.16;;;0.70
71640;BMP280;60912;48.968;10.124;2024-01-30T01:08:40;97866.31;;;0.74
71640;BMP280;60912;48.968;10.124;2024-01-30T01:11:05;97866.63;;;0.76
71640;BMP280;60912;48.968;10.124;2024-01-30T01:13:31;97872.47;;;0.87
71640;BMP280;60912;48.968;10.124;2024-01-30T01:15:56;97867.09;;;0.96
71640;BMP280;60912;48.968;10.124;2024-01-30T01:18:21;97868.50;;;1.01
71640;BMP280;60912;48.968;10.124;2024-01-30T01:20:47;97869.03;;;0.96
71640;BMP280;60912;48.968;10.124;2024-01-30T01:23:12;97863.84;;;0.89
71640;BMP280;60912;48.968;10.124;2024-01-30T01:25:38;97862.66;;;0.90
71640;BMP280;60912;48.968;10.124;2024-01-30T01:28:03;97869.22;;;0.80
71640;BMP280;60912;48.968;10.124;2024-01-30T01:30:29;97872.69;;;0.80
71640;BMP280;60912;48.968;10.124;2024-01-30T01:32:54;97868.97;;;0.87
71640;BMP280;60912;48.968;10.124;2024-01-30T01:35:26;97857.94;;;1.03
71640;BMP280;60912;48.968;10.124;2024-01-30T01:37:52;97859.81;;;1.15
71640;BMP280;60912;48.968;10.124;2024-01-30T01:40:23;97862.72;;;1.21
71640;BMP280;60912;48.968;10.124;2024-01-30T01:42:50;97857.19;;;1.24
71640;BMP280;60912;48.968;10.124;2024-01-30T01:45:16;97861.34;;;1.16
71640;BMP280;60912;48.968;10.124;2024-01-30T01:47:41;97865.00;;;1.22
71640;BMP280;60912;48.968;10.124;2024-01-30T01:50:07;97867.72;;;1.22
71640;BMP280;60912;48.968;10.124;2024-01-30T01:52:33;97866.44;;;1.14
71640;BMP280;60912;48.968;10.124;2024-01-30T01:54:59;97857.41;;;1.17
71640;BMP280;60912;48.968;10.124;2024-01-30T01:57:24;97851.75;;;1.24
71640;BMP280;60912;48.968;10.124;2024-01-30T01:59:49;97855.72;;;1.41
71640;BMP280;60912;48.968;10.124;2024-01-30T02:02:17;97850.28;;;1.41
71640;BMP280;60912;48.968;10.124;2024-01-30T02:04:45;97856.03;;;1.43
71640;BMP280;60912;48.968;10.124;2024-01-30T02:07:10;97856.03;;;1.43
71640;BMP280;60912;48.968;10.124;2024-01-30T02:09:36;97856.34;;;1.45
71640;BMP280;60912;48.968;10.124;2024-01-30T02:12:01;97860.59;;;1.46
71640;BMP280;60912;48.968;10.124;2024-01-30T02:14:26;97863.31;;;1.46
71640;BMP280;60912;48.968;10.124;2024-01-30T02:16:52;97861.22;;;1.51
71640;BMP280;60912;48.968;10.124;2024-01-30T02:19:17;97864.53;;;1.55
71640;BMP280;60912;48.968;10.124;2024-01-30T02:21:43;97858.41;;;1.63
71640;BMP280;60912;48.968;10.124;2024-01-30T02:24:09;97862.78;;;1.61
71640;BMP280;60912;48.968;10.124;2024-01-30T02:26:34;97851.69;;;1.46
71640;BMP280;60912;48.968;10.124;2024-01-30T02:29:00;97855.56;;;1.36
71640;BMP280;60912;48.968;10.124;2024-01-30T02:31:25;97860.94;;;1.27
71640;BMP280;60912;48.968;10.124;2024-01-30T02:33:51;97864.47;;;1.36
71640;BMP280;60912;48.968;10.124;2024-01-30T02:36:16;97860.94;;;1.27
71640;BMP280;60912;48.968;10.124;2024-01-30T02:38:42;97853.50;;;1.18
71640;BMP280;60912;48.968;10.124;2024-01-30T02:41:07;97855.16;;;1.16
71640;BMP280;60912;48.968;10.124;2024-01-30T02:43:32;97851.44;;;1.22
71640;BMP280;60912;48.968;10.124;2024-01-30T02:45:58;97857.41;;;1.17
71640;BMP280;60912;48.968;10.124;2024-01-30T02:48:24;97846.81;;;1.10
71640;BMP280;60912;48.968;10.124;2024-01-30T02:50:53;97853.63;;;1.15
71640;BMP280;60912;48.968;10.124;2024-01-30T02:53:18;97846.19;;;1.06
71640;BMP280;60912;48.968;10.124;2024-01-30T02:55:43;97849.59;;;1.19
71640;BMP280;60912;48.968;10.124;2024-01-30T02:58:09;97849.22;;;1.08
71640;BMP280;60912;48.968;10.124;2024-01-30T03:00:34;97844.44;;;1.12
71640;BMP280;60912;48.968;10.124;2024-01-30T03:03:00;97841.97;;;1.05
71640;BMP280;60912;48.968;10.124;2024-01-30T03:05:25;97846.00;;;1.00
71640;BMP280;60912;48.968;10.124;2024-01-30T03:07:50;97848.84;;;0.97
71640;BMP280;60912;48.968;10.124;2024-01-30T03:10:16;97847.66;;;0.98
71640;BMP280;60912;48.968;10.124;2024-01-30T03:12:41;97847.00;;;0.94
71640;BMP280;60912;48.968;10.124;2024-01-30T03:15:07;97850.03;;;0.96
71640;BMP280;60912;48.968;10.124;2024-01-30T03:17:32;97851.13;;;0.98
71640;BMP280;60912;48.968;10.124;2024-01-30T03:19:58;97844.56;;;1.08
71640;BMP280;60912;48.968;10.124;2024-01-30T03:22:23;97845.78;;;1.17
71640;BMP280;60912;48.968;10.124;2024-01-30T03:24:48;97852.13;;;0.92
71640;BMP280;60912;48.968;10.124;2024-01-30T03:27:14;97854.13;;;0.79
71640;BMP280;60912;48.968;10.124;2024-01-30T03:29:39;97848.84;;;0.75
71640;BMP280;60912;48.968;10.124;2024-01-30T03:32:05;97859.16;;;0.67
71640;BMP280;60912;48.968;10.124;2024-01-30T03:34:30;97861.91;;;0.55
71640;BMP280;60912;48.968;10.124;2024-01-30T03:36:55;97856.38;;;0.58
71640;BMP280;60912;48.968;10.124;2024-01-30T03:39:21;97860.69;;;0.68
71640;BMP280;60912;48.968;10.124;2024-01-30T03:41:46;97857.84;;;0.72
71640;BMP280;60912;48.968;10.124;2024-01-30T03:44:12;97862.75;;;0.64
71640;BMP280;60912;48.968;10.124;2024-01-30T03:46:37;97855.50;;;0.61
71640;BMP280;60912;48.968;10.124;2024-01-30T03:49:02;97859.09;;;0.58
71640;BMP280;60912;48.968;10.124;2024-01-30T03:51:28;97855.81;;;0.63
71640;BMP280;60912;48.968;10.124;2024-01-30T03:53:53;97840.38;;;0.73
71640;BMP280;60912;48.968;10.124;2024-01-30T03:56:18;97846.47;;;0.64
71640;BMP280;60912;48.968;10.124;2024-01-30T03:58:44;97845.59;;;0.67
71640;BMP280;60912;48.968;10.124;2024-01-30T04:01:13;97851.09;;;0.77
71640;BMP280;60912;48.968;10.124;2024-01-30T04:03:39;97851.56;;;0.75
71640;BMP280;60912;48.968;10.124;2024-01-30T04:06:05;97853.25;;;0.82
71640;BMP280;60912;48.968;10.124;2024-01-30T04:08:30;97853.75;;;0.89
71640;BMP280;60912;48.968;10.124;2024-01-30T04:10:55;97852.31;;;0.97
71640;BMP280;60912;48.968;10.124;2024-01-30T04:13:21;97857.94;;;1.03
71640;BMP280;60912;48.968;10.124;2024-01-30T04:15:46;97858.56;;;1.07
71640;BMP280;60912;48.968;10.124;2024-01-30T04:18:12;97850.41;;;1.07
71640;BMP280;60912;48.968;10.124;2024-01-30T04:20:37;97860.63;;;1.03
71640;BMP280;60912;48.968;10.124;2024-01-30T04:23:02;97859.00;;;1.05
71640;BMP280;60912;48.968;10.124;2024-01-30T04:25:28;97860.91;;;0.96
71640;BMP280;60912;48.968;10.124;2024-01-30T04:27:53;97868.41;;;0.92
71640;BMP280;60912;48.968;10.124;2024-01-30T04:30:18;97865.13;;;0.97
71640;BMP280;60912;48.968;10.124;2024-01-30T04:32:44;97871.44;;;0.94
71640;BMP280;60912;48.968;10.124;2024-01-30T04:35:09;97870.19;;;0.86
71640;BMP280;60912;48.968;10.124;2024-01-30T04:37:35;97868.97;;;0.87
71640;BMP280;60912;48.968;10.124;2024-01-30T04:40:00;97859.94;;;0.90
71640;BMP280;60912;48.968;10.124;2024-01-30T04:42:25;97867.25;;;0.80
71640;BMP280;60912;48.968;10.124;2024-01-30T04:44:51;97865.94;;;0.85
71640;BMP280;60912;48.968;10.124;2024-01-30T04:47:16;97864.50;;;0.93
71640;BMP280;60912;48.968;10.124;2024-01-30T04:49:41;97861.47;;;0.91
71640;BMP280;60912;48.968;10.124;2024-01-30T04:52:08;97881.09;;;0.95
71640;BMP280;60912;48.968;10.124;2024-01-30T04:54:36;97873.72;;;0.95
71640;BMP280;60912;48.968;10.124;2024-01-30T04:57:02;97869.81;;;0.96
71640;BMP280;60912;48.968;10.124;2024-01-30T04:59:27;97870.19;;;1.07
71640;BMP280;60912;48.968;10.124;2024-01-30T05:01:53;97873.09;;;1.13
71640;BMP280;60912;48.968;10.124;2024-01-30T05:04:18;97860.41;;;1.10
71640;BMP280;60912;48.968;10.124;2024-01-30T05:06:46;97866.97;;;1.00
71640;BMP280;60912;48.968;10.124;2024-01-30T05:09:12;97862.97;;;0.92
71640;BMP280;60912;48.968;10.124;2024-01-30T05:11:41;97863.63;;;0.96
71640;BMP280;60912;48.968;10.124;2024-01-30T05:14:07;97873.06;;;0.91
71640;BMP280;60912;48.968;10.124;2024-01-30T05:16:33;97878.75;;;0.84
71640;BMP280;60912;48.968;10.124;2024-01-30T05:18:59;97882.22;;;0.85
71640;BMP280;60912;48.968;10.124;2024-01-30T05:21:24;97886.69;;;0.79
71640;BMP280;60912;48.968;10.124;2024-01-30T05:23:50;97884.94;;;0.85
71640;BMP280;60912;48.968;10.124;2024-01-30T05:26:15;97885.56;;;0.89
71640;BMP280;60912;48.968;10.124;2024-01-30T05:28:41;97883.16;;;0.91
71640;BMP280;60912;48.968;10.124;2024-01-30T05:31:06;97874.59;;;0.92
71640;BMP280;60912;48.968;10.124;2024-01-30T05:33:31;97883.59;;;0.89
71640;BMP280;60912;48.968;10.124;2024-01-30T05:35:57;97889.72;;;0.81
71640;BMP280;60912;48.968;10.124;2024-01-30T05:38:22;97883.97;;;0.79
71640;BMP280;60912;48.968;10.124;2024-01-30T05:40:48;97879.44;;;0.76
71640;BMP280;60912;48.968;10.124;2024-01-30T05:43:13;97885.81;;;0.82
71640;BMP280;60912;48.968;10.124;2024-01-30T05:45:39;97882.34;;;0.81
71640;BMP280;60912;48.968;10.124;2024-01-30T05:48:04;97879.84;;;0.87
71640;BMP280;60912;48.968;10.124;2024-01-30T05:50:30;97887.97;;;0.87
71640;BMP280;60912;48.968;10.124;2024-01-30T05:52:55;97882.84;;;0.89
71640;BMP280;60912;48.968;10.124;2024-01-30T05:55:21;97887.00;;;0.81
71640;BMP280;60912;48.968;10.124;2024-01-30T05:57:46;97884.22;;;0.71
71640;BMP280;60912;48.968;10.124;2024-01-30T06:00:12;97885.13;;;0.56
71640;BMP280;60912;48.968;10.124;2024-01-30T06:02:38;97887.66;;;0.50
71640;BMP280;60912;48.968;10.124;2024-01-30T06:05:03;97896.75;;;0.56
71640;BMP280;60912;48.968;10.124;2024-01-30T06:07:28;97894.53;;;0.64
71640;BMP280;60912;48.968;10.124;2024-01-30T06:09:54;97880.19;;;0.76
71640;BMP280;60912;48.968;10.124;2024-01-30T06:12:19;97885.06;;;0.81
71640;BMP280;60912;48.968;10.124;2024-01-30T06:14:44;97871.56;;;0.90
71640;BMP280;60912;48.968;10.124;2024-01-30T06:17:10;97874.59;;;0.92
71640;BMP280;60912;48.968;10.124;2024-01-30T06:19:37;97872.69;;;1.02
71640;BMP280;60912;48.968;10.124;2024-01-30T06:22:06;97879.28;;;1.14
71640;BMP280;60912;48.968;10.124;2024-01-30T06:24:31;97874.59;;;1.14
71640;BMP280;60912;48.968;10.124;2024-01-30T06:26:56;97873.97;;;1.10
71640;BMP280;60912;48.968;10.124;2024-01-30T06:29:22;97880.84;;;1.02
71640;BMP280;60912;48.968;10.124;2024-01-30T06:31:49;97883.56;;;1.02
71640;BMP280;60912;48.968;10.124;2024-01-30T06:34:15;97882.94;;;0.98
71640;BMP280;60912;48.968;10.124;2024-01-30T06:36:40;97883.56;;;1.02
71640;BMP280;60912;48.968;10.124;2024-01-30T06:39:06;97884.47;;;0.99
71640;BMP280;60912;48.968;10.124;2024-01-30T06:41:32;97878.13;;;1.02
71640;BMP280;60912;48.968;10.124;2024-01-30T06:43:57;97885.97;;;1.00
71640;BMP280;60912;48.968;10.124;2024-01-30T06:46:23;97882.56;;;1.08
71640;BMP280;60912;48.968;10.124;2024-01-30T06:48:51;97878.75;;;1.06
71640;BMP280;60912;48.968;10.124;2024-01-30T06:51:17;97880.28;;;1.07
71640;BMP280;60912;48.968;10.124;2024-01-30T06:53:42;97886.03;;;1.09
71640;BMP280;60912;48.968;10.124;2024-01-30T06:56:07;97885.22;;;1.21
71640;BMP280;60912;48.968;10.124;2024-01-30T06:58:33;97889.34;;;1.35
71640;BMP280;60912;48.968;10.124;2024-01-30T07:00:58;97887.44;;;1.44
71640;BMP280;60912;48.968;10.124;2024-01-30T07:03:24;97883.13;;;1.56
71640;BMP280;60912;48.968;10.124;2024-01-30T07:05:49;97882.28;;;1.68
71640;BMP280;60912;48.968;10.124;2024-01-30T07:08:18;97893.06;;;1.81
71640;BMP280;60912;48.968;10.124;2024-01-30T07:10:44;97892.19;;;1.93
71640;BMP280;60912;48.968;10.124;2024-01-30T07:13:10;97890.56;;;2.05
71640;BMP280;60912;48.968;10.124;2024-01-30T07:15:36;97894.19;;;2.02
71640;BMP280;60912;48.968;10.124;2024-01-30T07:18:02;97904.66;;;2.12
71640;BMP280;60912;48.968;10.124;2024-01-30T07:20:27;97891.88;;;2.49
71640;BMP280;60912;48.968;10.124;2024-01-30T07:22:56;97897.31;;;3.64
71640;BMP280;60912;48.968;10.124;2024-01-30T07:25:21;97900.13;;;4.74
71640;BMP280;60912;48.968;10.124;2024-01-30T07:27:46;97898.94;;;5.19
71640;BMP280;60912;48.968;10.124;2024-01-30T07:30:12;97908.84;;;5.17
71640;BMP280;60912;48.968;10.124;2024-01-30T07:32:37;97903.72;;;4.95
71640;BMP280;60912;48.968;10.124;2024-01-30T07:35:03;97917.06;;;4.64
71640;BMP280;60912;48.968;10.124;2024-01-30T07:37:32;97916.97;;;4.34
71640;BMP280;60912;48.968;10.124;2024-01-30T07:39:57;97908.91;;;4.07
71640;BMP280;60912;48.968;10.124;2024-01-30T07:42:23;97911.19;;;3.76
71640;BMP280;60912;48.968;10.124;2024-01-30T07:44:48;97919.38;;;3.76
71640;BMP280;60912;48.968;10.124;2024-01-30T07:47:13;97915.75;;;3.69
71640;BMP280;60912;48.968;10.124;2024-01-30T07:49:39;97919.59;;;3.54
71640;BMP280;60912;48.968;10.124;2024-01-30T07:52:05;97920.84;;;3.44
71640;BMP280;60912;48.968;10.124;2024-01-30T07:54:33;97920.22;;;3.49
71640;BMP280;60912;48.968;10.124;2024-01-30T07:57:00;97921.22;;;3.69
71640;BMP280;60912;48.968;10.124;2024-01-30T07:59:26;97921.00;;;3.82
71640;BMP280;60912;48.968;10.124;2024-01-30T08:01:51;97921.75;;;3.83
71640;BMP280;60912;48.968;10.124;2024-01-30T08:04:17;97922.31;;;3.96
71640;BMP280;60912;48.968;10.124;2024-01-30T08:06:43;97914.72;;;4.00
71640;BMP280;60912;48.968;10.124;2024-01-30T08:09:08;97918.06;;;4.04
71640;BMP280;60912;48.968;10.124;2024-01-30T08:11:34;97925.03;;;4.05
71640;BMP280;60912;48.968;10.124;2024-01-30T08:13:59;97934.19;;;3.84
71640;BMP280;60912;48.968;10.124;2024-01-30T08:16:24;97922.72;;;3.80
71640;BMP280;60912;48.968;10.124;2024-01-30T08:18:50;97922.56;;;3.74
71640;BMP280;60912;48.968;10.124;2024-01-30T08:21:15;97920.19;;;3.67
71640;BMP280;60912;48.968;10.124;2024-01-30T08:23:41;97917.28;;;3.70
71640;BMP280;60912;48.968;10.124;2024-01-30T08:26:08;97919.63;;;3.87
71640;BMP280;60912;48.968;10.124;2024-01-30T08:28:33;97911.31;;;3.90
71640;BMP280;60912;48.968;10.124;2024-01-30T08:30:59;97920.25;;;3.82
71640;BMP280;60912;48.968;10.124;2024-01-30T08:33:24;97915.09;;;3.84
71640;BMP280;60912;48.968;10.124;2024-01-30T08:35:49;97918.03;;;3.71
71640;BMP280;60912;48.968;10.124;2024-01-30T08:38:15;97915.41;;;3.86
71640;BMP280;60912;48.968;10.124;2024-01-30T08:40:40;97908.88;;;3.92
71640;BMP280;60912;48.968;10.124;2024-01-30T08:43:05;97912.81;;;3.82
71640;BMP280;60912;48.968;10.124;2024-01-30T08:45:31;97911.06;;;3.70
71640;BMP280;60912;48.968;10.124;2024-01-30T08:47:56;97921.75;;;3.83
71640;BMP280;60912;48.968;10.124;2024-01-30T08:50:22;97911.31;;;3.90
71640;BMP280;60912;48.968;10.124;2024-01-30T08:52:47;97910.41;;;3.84
71640;BMP280;60912;48.968;10.124;2024-01-30T08:55:13;97912.38;;;3.84
71640;BMP280;60912;48.968;10.124;2024-01-30T08:57:38;97923.66;;;4.00
71640;BMP280;60912;48.968;10.124;2024-01-30T09:00:04;97918.38;;;4.30
71640;BMP280;60912;48.968;10.124;2024-01-30T09:02:32;97922.38;;;4.58
71640;BMP280;60912;48.968;10.124;2024-01-30T09:04:58;97915.66;;;4.83
71640;BMP280;60912;48.968;10.124;2024-01-30T09:07:23;97915.81;;;5.03
71640;BMP280;60912;48.968;10.124;2024-01-30T09:09:49;97923.34;;;5.23
71640;BMP280;60912;48.968;10.124;2024-01-30T09:12:14;97914.88;;;5.36
71640;BMP280;60912;48.968;10.124;2024-01-30T09:14:40;97920.16;;;5.54
71640;BMP280;60912;48.968;10.124;2024-01-30T09:17:06;97916.03;;;5.79
71640;BMP280;60912;48.968;10.124;2024-01-30T09:19:32;97912.66;;;6.04
71640;BMP280;60912;48.968;10.124;2024-01-30T09:21:57;97920.06;;;6.18
71640;BMP280;60912;48.968;10.124;2024-01-30T09:24:23;97922.28;;;6.14
71640;BMP280;60912;48.968;10.124;2024-01-30T09:26:48;97921.84;;;6.21
71640;BMP280;60912;48.968;10.124;2024-01-30T09:29:13;97917.88;;;6.22
71640;BMP280;60912;48.968;10.124;2024-01-30T09:31:39;97923.06;;;6.20
71640;BMP280;60912;48.968;10.124;2024-01-30T09:34:04;97927.53;;;6.18
71640;BMP280;60912;48.968;10.124;2024-01-30T09:36:31;97923.09;;;6.40
71640;BMP280;60912;48.968;10.124;2024-01-30T09:38:57;97923.25;;;6.77
71640;BMP280;60912;48.968;10.124;2024-01-30T09:41:24;97920.25;;;7.01
71640;BMP280;60912;48.968;10.124;2024-01-30T09:43:50;97931.50;;;7.29
71640;BMP280;60912;48.968;10.124;2024-01-30T09:46:17;97928.66;;;7.49
71640;BMP280;60912;48.968;10.124;2024-01-30T09:48:46;97928.50;;;7.58
71640;BMP280;60912;48.968;10.124;2024-01-30T09:51:14;97932.56;;;7.74
71640;BMP280;60912;48.968;10.124;2024-01-30T09:53:40;97932.47;;;7.94
71640;BMP280;60912;48.968;10.124;2024-01-30T09:56:05;97930.97;;;7.93
71640;BMP280;60912;48.968;10.124;2024-01-30T09:58:31;97928.28;;;8.10
71640;BMP280;60912;48.968;10.124;2024-01-30T10:00:56;97922.66;;;8.30
71640;BMP280;60912;48.968;10.124;2024-01-30T10:03:21;97929.00;;;8.59
71640;BMP280;60912;48.968;10.124;2024-01-30T10:05:54;97922.78;;;8.69
71640;BMP280;60912;48.968;10.124;2024-01-30T10:08:21;97921.06;;;8.83
71640;BMP280;60912;48.968;10.124;2024-01-30T10:10:47;97921.06;;;8.83
71640;BMP280;60912;48.968;10.124;2024-01-30T10:13:12;97917.34;;;8.97
71640;BMP280;60912;48.968;10.124;2024-01-30T10:15:38;97918.06;;;8.92
71640;BMP280;60912;48.968;10.124;2024-01-30T10:18:04;97909.09;;;9.08
71640;BMP280;60912;48.968;10.124;2024-01-30T10:20:32;97916.31;;;8.94
71640;BMP280;60912;48.968;10.124;2024-01-30T10:22:57;97916.56;;;9.02
71640;BMP280;60912;48.968;10.124;2024-01-30T10:25:23;97909.59;;;9.34
71640;BMP280;60912;48.968;10.124;2024-01-30T10:27:55;97907.31;;;9.38
71640;BMP280;60912;48.968;10.124;2024-01-30T10:30:21;97906.53;;;9.66
71640;BMP280;60912;48.968;10.124;2024-01-30T10:32:47;97903.75;;;9.83
71640;BMP280;60912;48.968;10.124;2024-01-30T10:35:13;97905.47;;;9.91
71640;BMP280;60912;48.968;10.124;2024-01-30T10:37:38;97909.91;;;10.16
71640;BMP280;60912;48.968;10.124;2024-01-30T10:40:04;97898.56;;;10.26
71640;BMP280;60912;48.968;10.124;2024-01-30T10:42:33;97903.34;;;10.31
71640;BMP280;60912;48.968;10.124;2024-01-30T10:45:10;97909.22;;;10.57
71640;BMP280;60912;48.968;10.124;2024-01-30T10:47:39;97898.50;;;10.83
71640;BMP280;60912;48.968;10.124;2024-01-30T10:50:06;97893.84;;;11.02
71640;BMP280;60912;48.968;10.124;2024-01-30T10:52:33;97899.56;;;11.10
71640;BMP280;60912;48.968;10.124;2024-01-30T10:54:58;97894.31;;;11.06
71640;BMP280;60912;48.968;10.124;2024-01-30T10:57:25;97888.22;;;11.14
71640;BMP280;60912;48.968;10.124;2024-01-30T10:59:58;97887.56;;;11.32
71640;BMP280;60912;48.968;10.124;2024-01-30T11:02:25;97883.81;;;11.53
71640;BMP280;60912;48.968;10.124;2024-01-30T11:04:56;97885.97;;;11.66
71640;BMP280;60912;48.968;10.124;2024-01-30T11:07:27;97884.28;;;11.82
71640;BMP280;60912;48.968;10.124;2024-01-30T11:12:25;97891.31;;;12.02
71640;BMP280;60912;48.968;10.124;2024-01-30T11:15:14;97884.69;;;12.10
71640;BMP280;60912;48.968;10.124;2024-01-30T11:18:00;97891.28;;;12.07
71640;BMP280;60912;48.968;10.124;2024-01-30T11:20:29;97888.78;;;12.04
71640;BMP280;60912;48.968;10.124;2024-01-30T11:22:59;97887.50;;;12.05
71640;BMP280;60912;48.968;10.124;2024-01-30T11:25:25;97885.13;;;12.14
71640;BMP280;60912;48.968;10.124;2024-01-30T11:27:55;97888.06;;;12.22
71640;BMP280;60912;48.968;10.124;2024-01-30T11:30:31;97891.78;;;12.24
71640;BMP280;60912;48.968;10.124;2024-01-30T11:33:07;97881.75;;;12.03
71640;BMP280;60912;48.968;10.124;2024-01-30T11:38:06;97884.84;;;11.99
71640;BMP280;60912;48.968;10.124;2024-01-30T11:40:32;97873.69;;;12.05
71640;BMP280;60912;48.968;10.124;2024-01-30T11:42:59;97876.34;;;12.16
71640;BMP280;60912;48.968;10.124;2024-01-30T11:45:26;97865.34;;;12.29
71640;BMP280;60912;48.968;10.124;2024-01-30T11:47:53;97866.53;;;12.33
71640;BMP280;60912;48.968;10.124;2024-01-30T11:50:18;97864.91;;;12.25
71640;BMP280;60912;48.968;10.124;2024-01-30T11:52:44;97867.88;;;12.27
71640;BMP280;60912;48.968;10.124;2024-01-30T11:55:10;97864.13;;;12.43
71640;BMP280;60912;48.968;10.124;2024-01-30T11:57:35;97859.88;;;12.42
71640;BMP280;60912;48.968;10.124;2024-01-30T12:00:03;97860.13;;;12.44
71640;BMP280;60912;48.968;10.124;2024-01-30T12:02:37;97865.06;;;12.51
71640;BMP280;60912;48.968;10.124;2024-01-30T12:05:04;97857.09;;;12.61
71640;BMP280;60912;48.968;10.124;2024-01-30T12:07:30;97859.00;;;12.66
71640;BMP280;60912;48.968;10.124;2024-01-30T12:09:55;97857.53;;;12.65
71640;BMP280;60912;48.968;10.124;2024-01-30T12:12:25;97857.22;;;12.68
71640;BMP280;60912;48.968;10.124;2024-01-30T12:14:51;97856.47;;;12.68
71640;BMP280;60912;48.968;10.124;2024-01-30T12:17:33;97861.44;;;12.56
71640;BMP280;60912;48.968;10.124;2024-01-30T12:20:12;97855.31;;;12.63
71640;BMP280;60912;48.968;10.124;2024-01-30T12:27:36;97848.84;;;12.74
71640;BMP280;60912;48.968;10.124;2024-01-30T12:30:06;97853.69;;;12.68
71640;BMP280;60912;48.968;10.124;2024-01-30T12:32:37;97859.09;;;12.60
71640;BMP280;60912;48.968;10.124;2024-01-30T12:35:07;97852.53;;;12.63
71640;BMP280;60912;48.968;10.124;2024-01-30T12:37:32;97854.06;;;12.77
71640;BMP280;60912;48.968;10.124;2024-01-30T12:39:58;97846.63;;;12.85
71640;BMP280;60912;48.968;10.124;2024-01-30T12:42:23;97848.94;;;12.81
71640;BMP280;60912;48.968;10.124;2024-01-30T12:44:52;97846.38;;;12.70
71640;BMP280;60912;48.968;10.124;2024-01-30T12:47:17;97847.88;;;12.71
71640;BMP280;60912;48.968;10.124;2024-01-30T12:49:43;97846.50;;;12.78
71640;BMP280;60912;48.968;10.124;2024-01-30T12:52:11;97845.97;;;12.79
71640;BMP280;60912;48.968;10.124;2024-01-30T12:54:37;97841.41;;;12.82
71640;BMP280;60912;48.968;10.124;2024-01-30T12:57:02;97841.63;;;12.84
71640;BMP280;60912;48.968;10.124;2024-01-30T12:59:28;97838.94;;;12.78
71640;BMP280;60912;48.968;10.124;2024-01-30T13:01:53;97840.00;;;12.75
71640;BMP280;60912;48.968;10.124;2024-01-30T13:04:22;97836.72;;;12.77
71640;BMP280;60912;48.968;10.124;2024-01-30T13:06:51;97838.00;;;12.76
71640;BMP280;60912;48.968;10.124;2024-01-30T13:09:44;97831.47;;;12.73
71640;BMP280;60912;48.968;10.124;2024-01-30T13:12:23;97844.50;;;12.78
71640;BMP280;60912;48.968;10.124;2024-01-30T13:15:04;97843.13;;;12.85
71640;BMP280;60912;48.968;10.124;2024-01-30T13:17:34;97836.91;;;12.79
71640;BMP280;60912;48.968;10.124;2024-01-30T13:20:01;97841.72;;;12.78
71640;BMP280;60912;48.968;10.124;2024-01-30T13:22:29;97833.25;;;12.90
71640;BMP280;60912;48.968;10.124;2024-01-30T13:24:57;97836.44;;;13.07
71640;BMP280;60912;48.968;10.124;2024-01-30T13:27:23;97833.91;;;13.09
71640;BMP280;60912;48.968;10.124;2024-01-30T13:29:49;97832.63;;;13.10
71640;BMP280;60912;48.968;10.124;2024-01-30T13:35:16;97828.38;;;13.09
71640;BMP280;60912;48.968;10.124;2024-01-30T13:37:42;97840.31;;;13.17
71640;BMP280;60912;48.968;10.124;2024-01-30T13:40:07;97833.50;;;13.31
71640;BMP280;60912;48.968;10.124;2024-01-30T13:42:37;97839.25;;;13.33
71640;BMP280;60912;48.968;10.124;2024-01-30T13:45:03;97834.16;;;13.37
71640;BMP280;60912;48.968;10.124;2024-01-30T13:47:28;97824.97;;;13.29
71640;BMP280;60912;48.968;10.124;2024-01-30T13:49:54;97833.91;;;13.09
71640;BMP280;60912;48.968;10.124;2024-01-30T13:52:20;97839.66;;;12.98
71640;BMP280;60912;48.968;10.124;2024-01-30T13:54:45;97843.56;;;12.89
71640;BMP280;60912;48.968;10.124;2024-01-30T13:57:11;97833.13;;;12.95
71640;BMP280;60912;48.968;10.124;2024-01-30T13:59:39;97848.16;;;13.00
71640;BMP280;60912;48.968;10.124;2024-01-30T14:02:05;97838.63;;;12.82
71640;BMP280;60912;48.968;10.124;2024-01-30T14:04:32;97850.22;;;12.80
71640;BMP280;60912;48.968;10.124;2024-01-30T14:06:57;97848.09;;;12.73
71640;BMP280;60912;48.968;10.124;2024-01-30T14:09:22;97845.75;;;12.64
71640;BMP280;60912;48.968;10.124;2024-01-30T14:11:48;97856.34;;;12.60
71640;BMP280;60912;48.968;10.124;2024-01-30T14:14:13;97854.22;;;12.66